createdAt,value
2019-03-21T00:01:35.141Z,68.50
2019-03-21T00:04:09.536Z,68.40
2019-03-21T00:06:39.854Z,68.60
2019-03-21T00:09:12.152Z,68.60
2019-03-21T00:12:01.912Z,68.50
2019-03-21T00:14:38.612Z,69.20
2019-03-21T00:17:08.919Z,68.60
2019-03-21T00:19:39.176Z,68.40
2019-03-21T00:22:09.492Z,68.50
2019-03-21T00:24:39.752Z,68.70
2019-03-21T00:27:10.160Z,68.70
2019-03-21T00:29:40.432Z,68.80
2019-03-21T00:32:10.885Z,68.70
2019-03-21T00:34:41.223Z,68.80
2019-03-21T00:37:11.509Z,68.70
2019-03-21T00:39:41.927Z,68.70
2019-03-21T00:42:12.212Z,68.70
2019-03-21T00:44:42.737Z,68.70
2019-03-21T00:47:12.992Z,68.70
2019-03-21T00:49:43.276Z,68.80
2019-03-21T00:52:13.529Z,68.80
2019-03-21T00:54:43.864Z,69.10
2019-03-21T00:57:14.130Z,68.80
2019-03-21T00:59:44.408Z,68.90
2019-03-21T01:02:14.666Z,69.00
2019-03-21T01:04:44.949Z,68.80
2019-03-21T01:07:15.200Z,68.80
2019-03-21T01:09:45.553Z,68.90
2019-03-21T01:12:15.820Z,68.90
2019-03-21T01:14:46.060Z,69.10
2019-03-21T01:17:16.387Z,68.90
2019-03-21T01:19:46.641Z,68.90
2019-03-21T01:22:18.780Z,68.90
2019-03-21T01:24:52.074Z,69.00
2019-03-21T01:27:22.324Z,68.80
2019-03-21T01:29:52.678Z,68.80
2019-03-21T01:32:22.944Z,68.90
2019-03-21T01:34:53.200Z,69.00
2019-03-21T01:37:23.476Z,69.10
2019-03-21T01:39:53.744Z,68.90
2019-03-21T01:42:23.996Z,68.90
2019-03-21T01:44:54.276Z,69.00
2019-03-21T01:47:24.531Z,69.10
2019-03-21T01:49:54.771Z,69.00
2019-03-21T01:52:25.044Z,69.20
2019-03-21T01:54:55.357Z,69.10
2019-03-21T01:57:25.785Z,69.20
2019-03-21T01:59:56.076Z,69.20
2019-03-21T02:02:26.363Z,69.20
2019-03-21T02:04:56.585Z,69.30
2019-03-21T02:07:26.841Z,69.20
2019-03-21T02:09:57.157Z,69.20
2019-03-21T02:12:27.393Z,69.40
2019-03-21T02:14:58.531Z,69.40
2019-03-21T02:17:28.756Z,69.20
2019-03-21T02:19:58.969Z,69.40
2019-03-21T02:22:29.197Z,69.40
2019-03-21T02:24:59.396Z,69.40
2019-03-21T02:27:29.656Z,69.40
2019-03-21T02:29:59.924Z,69.50
2019-03-21T02:32:30.228Z,69.40
2019-03-21T02:35:00.547Z,69.40
2019-03-21T02:37:30.863Z,69.40
2019-03-21T02:40:01.118Z,70.30
2019-03-21T02:42:32.415Z,69.30
2019-03-21T02:45:08.836Z,69.40
2019-03-21T02:47:39.177Z,69.50
2019-03-21T02:50:12.456Z,69.50
2019-03-21T02:52:42.703Z,69.50
2019-03-21T02:55:13.038Z,69.60
2019-03-21T02:57:43.264Z,69.40
2019-03-21T03:00:16.657Z,69.60
2019-03-21T03:02:47.721Z,69.60
2019-03-21T03:05:22.817Z,69.60
2019-03-21T03:07:53.149Z,69.70
2019-03-21T03:10:26.521Z,69.70
2019-03-21T03:12:56.756Z,69.60
2019-03-21T03:15:28.604Z,69.70
2019-03-21T03:17:58.827Z,69.60
2019-03-21T03:20:29.125Z,69.80
2019-03-21T03:22:59.532Z,69.80
2019-03-21T03:25:29.841Z,69.70
2019-03-21T03:28:03.403Z,70.40
2019-03-21T03:30:33.665Z,69.70
2019-03-21T03:33:03.951Z,69.60
2019-03-21T03:35:34.257Z,69.40
2019-03-21T03:38:04.572Z,69.60
2019-03-21T03:40:38.679Z,69.70
2019-03-21T03:43:08.982Z,69.60
2019-03-21T03:45:39.321Z,69.70
2019-03-21T03:48:09.543Z,69.80
2019-03-21T03:50:39.807Z,69.50
2019-03-21T03:53:10.129Z,69.50
2019-03-21T03:55:40.512Z,69.60
2019-03-21T03:58:12.745Z,69.50
2019-03-21T04:00:43.147Z,69.50
2019-03-21T04:03:13.367Z,69.70
2019-03-21T04:05:43.802Z,69.60
2019-03-21T04:08:15.965Z,69.70
2019-03-21T04:10:46.533Z,69.70
2019-03-21T04:13:16.940Z,69.60
2019-03-21T04:15:53.405Z,69.60
2019-03-21T04:18:19.499Z,69.70
2019-03-21T04:20:50.867Z,69.60
2019-03-21T04:23:21.404Z,69.70
2019-03-21T04:25:54.985Z,69.60
2019-03-21T04:28:25.221Z,69.60
2019-03-21T04:30:55.457Z,69.60
2019-03-21T04:33:25.750Z,69.60
2019-03-21T04:35:56.058Z,69.50
2019-03-21T04:38:26.330Z,69.50
2019-03-21T04:40:56.586Z,69.60
2019-03-21T04:43:26.813Z,69.40
2019-03-21T04:46:03.429Z,69.50
2019-03-21T04:48:29.182Z,69.50
2019-03-21T04:50:59.435Z,69.70
2019-03-21T04:53:29.655Z,69.50
2019-03-21T04:55:59.927Z,69.50
2019-03-21T04:58:30.161Z,69.50
2019-03-21T05:01:00.701Z,69.70
2019-03-21T05:03:30.977Z,69.60
2019-03-21T05:06:01.233Z,69.60
2019-03-21T05:08:31.448Z,69.50
2019-03-21T05:11:01.685Z,69.40
2019-03-21T05:13:31.943Z,69.40
2019-03-21T05:16:02.189Z,69.50
2019-03-21T05:18:35.279Z,69.60
2019-03-21T05:21:06.401Z,69.70
2019-03-21T05:23:36.628Z,69.50
2019-03-21T05:26:06.851Z,69.70
2019-03-21T05:28:37.112Z,69.70
2019-03-21T05:31:17.090Z,69.70
2019-03-21T05:33:47.884Z,70.40
2019-03-21T05:36:18.120Z,69.50
2019-03-21T05:38:48.353Z,69.40
2019-03-21T05:41:18.634Z,69.40
2019-03-21T05:43:55.893Z,69.60
2019-03-21T05:46:27.229Z,69.40
2019-03-21T05:48:58.801Z,69.30
2019-03-21T05:51:29.043Z,69.30
2019-03-21T05:53:59.285Z,69.40
2019-03-21T05:56:29.619Z,69.40
2019-03-21T05:58:59.857Z,70.10
2019-03-21T06:01:30.078Z,69.40
2019-03-21T06:04:00.386Z,69.40
2019-03-21T06:06:38.831Z,69.30
2019-03-21T06:09:11.688Z,69.30
2019-03-21T06:11:44.467Z,69.30
2019-03-21T06:14:14.761Z,69.50
2019-03-21T06:16:45.007Z,69.40
2019-03-21T06:19:22.211Z,69.50
2019-03-21T06:22:24.509Z,69.50
2019-03-21T06:25:20.214Z,69.50
2019-03-21T06:27:50.452Z,69.40
2019-03-21T06:30:20.736Z,69.40
2019-03-21T06:32:50.965Z,69.40
2019-03-21T06:35:24.309Z,69.40
2019-03-21T06:37:54.781Z,69.40
2019-03-21T06:40:24.994Z,69.40
2019-03-21T06:42:55.177Z,69.20
2019-03-21T06:45:25.539Z,69.40
2019-03-21T06:47:55.749Z,69.30
2019-03-21T06:50:25.966Z,69.30
2019-03-21T06:52:56.277Z,69.20
2019-03-21T06:55:26.657Z,69.20
2019-03-21T06:57:57.863Z,69.00
2019-03-21T07:00:28.140Z,69.00
2019-03-21T07:03:00.003Z,68.90
2019-03-21T07:05:30.274Z,68.70
2019-03-21T07:08:00.518Z,68.50
2019-03-21T07:10:30.740Z,68.40
2019-03-21T07:13:00.930Z,68.20
2019-03-21T07:15:31.136Z,68.10
2019-03-21T07:18:01.383Z,67.90
2019-03-21T07:20:31.604Z,68.00
2019-03-21T07:23:01.802Z,68.00
2019-03-21T07:25:32.015Z,68.00
2019-03-21T07:28:02.214Z,67.80
2019-03-21T07:30:32.488Z,67.70
2019-03-21T07:33:02.677Z,67.00
2019-03-21T07:35:32.879Z,67.00
2019-03-21T07:38:03.215Z,66.90
2019-03-21T07:40:33.412Z,67.50
2019-03-21T07:43:03.673Z,67.30
2019-03-21T07:45:33.882Z,67.70
2019-03-21T07:48:05.450Z,67.40
2019-03-21T07:50:35.876Z,65.90
2019-03-21T07:53:07.200Z,65.30
2019-03-21T07:55:37.521Z,64.70
2019-03-21T07:58:07.844Z,62.80
2019-03-21T08:00:38.462Z,61.20
2019-03-21T08:03:09.039Z,59.70
2019-03-21T08:05:40.914Z,58.50
2019-03-21T08:08:11.189Z,57.80
2019-03-21T08:10:41.442Z,56.60
2019-03-21T08:13:11.680Z,55.80
2019-03-21T08:15:42.015Z,54.60
2019-03-21T08:18:12.324Z,53.60
2019-03-21T08:20:42.673Z,52.60
2019-03-21T08:23:12.901Z,51.90
2019-03-21T08:25:43.129Z,51.00
2019-03-21T08:28:13.356Z,50.50
2019-03-21T08:31:14.594Z,49.20
2019-03-21T08:33:45.700Z,48.50
2019-03-21T08:36:16.643Z,48.30
2019-03-21T08:38:46.953Z,47.10
2019-03-21T08:41:17.354Z,46.30
2019-03-21T08:43:47.686Z,45.40
2019-03-21T08:46:18.023Z,44.90
2019-03-21T08:48:48.373Z,44.30
2019-03-21T08:51:18.628Z,43.70
2019-03-21T08:53:48.874Z,42.60
2019-03-21T08:56:19.112Z,42.00
2019-03-21T08:58:49.441Z,41.70
2019-03-21T09:01:19.763Z,41.30
2019-03-21T09:03:51.025Z,40.70
2019-03-21T09:06:21.439Z,40.70
2019-03-21T09:08:51.667Z,39.60
2019-03-21T09:11:21.991Z,39.20
2019-03-21T09:13:52.331Z,39.10
2019-03-21T09:16:22.588Z,38.70
2019-03-21T09:18:52.867Z,38.50
2019-03-21T09:21:23.109Z,37.80
2019-03-21T09:23:53.332Z,37.80
2019-03-21T09:26:23.637Z,37.90
2019-03-21T09:28:53.925Z,36.80
2019-03-21T09:31:24.247Z,37.10
2019-03-21T09:33:54.508Z,36.30
2019-03-21T09:36:25.104Z,36.60
2019-03-21T09:38:55.596Z,35.60
2019-03-21T09:41:25.865Z,35.10
2019-03-21T09:43:56.105Z,35.60
2019-03-21T09:46:26.482Z,35.30
2019-03-21T09:48:59.064Z,34.90
2019-03-21T09:51:31.122Z,35.30
2019-03-21T09:54:09.270Z,35.60
2019-03-21T09:56:33.097Z,34.80
2019-03-21T09:59:03.387Z,34.70
2019-03-21T10:01:33.598Z,34.50
2019-03-21T10:04:04.129Z,34.40
2019-03-21T10:06:34.337Z,33.90
2019-03-21T10:09:07.183Z,34.00
2019-03-21T10:11:38.966Z,34.10
2019-03-21T10:14:09.372Z,33.50
2019-03-21T10:16:39.573Z,33.30
2019-03-21T10:19:09.799Z,33.50
2019-03-21T10:21:43.631Z,32.60
2019-03-21T10:24:11.992Z,32.50
2019-03-21T10:26:42.193Z,32.50
2019-03-21T10:29:12.445Z,32.70
2019-03-21T10:31:42.825Z,32.20
2019-03-21T10:34:13.099Z,32.40
2019-03-21T10:36:43.345Z,32.10
2019-03-21T10:39:13.564Z,32.60
2019-03-21T10:41:43.771Z,32.60
2019-03-21T10:44:14.104Z,33.20
2019-03-21T10:46:44.458Z,33.10
2019-03-21T10:49:14.769Z,33.90
2019-03-21T10:51:54.498Z,33.80
2019-03-21T10:54:16.898Z,34.70
2019-03-21T10:56:47.131Z,35.20
2019-03-21T10:59:17.365Z,35.60
2019-03-21T11:01:47.593Z,36.30
2019-03-21T11:04:17.895Z,37.00
2019-03-21T11:06:48.112Z,37.00
2019-03-21T11:09:18.416Z,37.70
2019-03-21T11:11:48.708Z,38.40
2019-03-21T11:14:18.963Z,38.40
2019-03-21T11:16:49.175Z,38.60
2019-03-21T11:19:19.421Z,39.10
2019-03-21T11:21:49.733Z,40.20
2019-03-21T11:24:20.061Z,40.80
2019-03-21T11:26:50.464Z,40.20
2019-03-21T11:29:20.712Z,40.90
2019-03-21T11:31:50.949Z,41.00
2019-03-21T11:34:21.208Z,41.40
2019-03-21T11:36:51.461Z,41.70
2019-03-21T11:39:21.764Z,41.60
2019-03-21T11:41:52.013Z,42.30
2019-03-21T11:44:22.224Z,42.90
2019-03-21T11:46:52.603Z,43.00
2019-03-21T11:49:22.824Z,43.60
2019-03-21T11:51:53.067Z,43.90
2019-03-21T11:54:23.277Z,44.90
2019-03-21T11:56:53.534Z,44.60
2019-03-21T11:59:23.753Z,45.00
2019-03-21T12:01:53.997Z,45.10
2019-03-21T12:04:24.207Z,44.40
2019-03-21T12:06:54.472Z,45.00
2019-03-21T12:09:24.745Z,45.70
2019-03-21T12:11:55.009Z,45.60
2019-03-21T12:14:25.254Z,46.00
2019-03-21T12:16:55.487Z,46.20
2019-03-21T12:19:25.816Z,46.80
2019-03-21T12:21:56.041Z,46.70
2019-03-21T12:24:26.322Z,46.00
2019-03-21T12:26:56.539Z,46.60
2019-03-21T12:29:26.772Z,46.70
2019-03-21T12:31:57.013Z,46.70
2019-03-21T12:34:27.253Z,47.40
2019-03-21T12:36:57.625Z,47.70
2019-03-21T12:39:29.037Z,47.70
2019-03-21T12:41:59.468Z,47.80
2019-03-21T12:44:29.697Z,47.80
2019-03-21T12:47:00.033Z,48.00
2019-03-21T12:49:30.247Z,48.20
2019-03-21T12:52:00.498Z,48.70
2019-03-21T12:54:30.721Z,48.40
2019-03-21T12:57:01.136Z,47.80
2019-03-21T12:59:31.424Z,47.80
2019-03-21T13:02:01.748Z,48.10
2019-03-21T13:04:32.028Z,47.90
2019-03-21T13:07:02.258Z,48.10
2019-03-21T13:09:32.489Z,48.10
2019-03-21T13:12:02.743Z,48.40
2019-03-21T13:14:33.008Z,48.10
2019-03-21T13:17:03.238Z,48.40
2019-03-21T13:19:33.547Z,48.80
2019-03-21T13:22:03.873Z,49.20
2019-03-21T13:24:34.115Z,49.30
2019-03-21T13:27:04.487Z,49.30
2019-03-21T13:29:34.729Z,49.60
2019-03-21T13:32:05.054Z,49.00
2019-03-21T13:34:35.297Z,49.60
2019-03-21T13:37:05.537Z,49.60
2019-03-21T13:39:35.778Z,48.70
2019-03-21T13:42:06.089Z,49.60
2019-03-21T13:44:36.330Z,49.50
2019-03-21T13:47:06.569Z,49.40
2019-03-21T13:49:36.894Z,49.80
2019-03-21T13:52:07.140Z,49.90
2019-03-21T13:54:37.645Z,50.30
2019-03-21T13:57:07.860Z,49.90
2019-03-21T13:59:38.275Z,50.10
2019-03-21T14:02:08.494Z,50.00
2019-03-21T14:04:38.753Z,50.90
2019-03-21T14:07:09.185Z,50.10
2019-03-21T14:09:39.421Z,50.60
2019-03-21T14:12:09.677Z,50.50
2019-03-21T14:14:39.909Z,50.30
2019-03-21T14:17:21.318Z,50.60
2019-03-21T14:19:42.073Z,50.20
2019-03-21T14:22:12.304Z,50.60
2019-03-21T14:24:42.557Z,50.30
2019-03-21T14:27:12.776Z,50.60
2019-03-21T14:29:43.081Z,50.80
2019-03-21T14:32:13.303Z,50.20
2019-03-21T14:34:43.616Z,50.70
2019-03-21T14:37:13.919Z,50.40
2019-03-21T14:39:44.132Z,50.50
2019-03-21T14:42:14.361Z,49.70
2019-03-21T14:44:45.575Z,50.20
2019-03-21T14:47:15.848Z,50.20
2019-03-21T14:49:46.159Z,50.70
2019-03-21T14:52:16.373Z,50.10
2019-03-21T14:54:46.713Z,50.20
2019-03-21T14:57:16.954Z,50.30
2019-03-21T14:59:47.220Z,50.10
2019-03-21T15:02:17.600Z,50.50
2019-03-21T15:04:48.913Z,50.50
2019-03-21T15:07:19.126Z,50.40
2019-03-21T15:09:49.373Z,50.50
2019-03-21T15:12:19.600Z,50.50
2019-03-21T15:14:49.900Z,50.70
2019-03-21T15:17:20.276Z,50.60
2019-03-21T15:19:50.498Z,50.60
2019-03-21T15:22:20.806Z,50.90
2019-03-21T15:24:51.142Z,50.90
2019-03-21T15:27:23.000Z,51.40
2019-03-21T15:29:53.217Z,50.90
2019-03-21T15:32:23.433Z,51.00
2019-03-21T15:34:53.605Z,50.90
2019-03-21T15:37:23.772Z,51.10
2019-03-21T15:39:53.971Z,51.10
2019-03-21T15:42:24.153Z,51.60
2019-03-21T15:45:07.208Z,51.20
2019-03-21T15:47:27.314Z,51.50
2019-03-21T15:49:57.460Z,51.50
2019-03-21T15:52:27.640Z,51.50
2019-03-21T15:54:58.137Z,51.50
2019-03-21T15:57:28.310Z,51.70
2019-03-21T15:59:58.475Z,51.70
2019-03-21T16:02:28.644Z,51.70
2019-03-21T16:04:58.806Z,52.10
2019-03-21T16:07:28.984Z,52.30
2019-03-21T16:09:59.156Z,52.10
2019-03-21T16:12:29.349Z,52.50
2019-03-21T16:14:59.537Z,52.50
2019-03-21T16:17:29.720Z,52.50
2019-03-21T16:19:59.912Z,52.50
2019-03-21T16:22:30.101Z,52.50
2019-03-21T16:25:00.345Z,52.50
2019-03-21T16:27:30.562Z,52.70
2019-03-21T16:30:00.767Z,52.80
2019-03-21T16:32:30.957Z,52.90
2019-03-21T16:35:01.170Z,52.80
2019-03-21T16:37:31.351Z,52.80
2019-03-21T16:40:01.532Z,53.00
2019-03-21T16:42:31.696Z,53.20
2019-03-21T16:45:01.853Z,53.30
2019-03-21T16:47:32.099Z,53.30
2019-03-21T16:50:02.263Z,53.60
2019-03-21T16:52:32.428Z,53.70
2019-03-21T16:55:02.637Z,53.60
2019-03-21T16:57:33.781Z,53.60
2019-03-21T17:00:04.815Z,54.00
2019-03-21T17:02:36.738Z,54.20
2019-03-21T17:05:07.109Z,54.10
2019-03-21T17:07:37.294Z,54.40
2019-03-21T17:10:08.338Z,54.30
2019-03-21T17:12:40.615Z,54.20
2019-03-21T17:15:10.624Z,54.10
2019-03-21T17:17:40.782Z,54.40
2019-03-21T17:20:11.648Z,54.50
2019-03-21T17:22:41.964Z,54.60
2019-03-21T17:25:12.585Z,54.30
2019-03-21T17:27:54.689Z,54.40
2019-03-21T17:30:23.989Z,54.50
2019-03-21T17:32:54.164Z,54.60
2019-03-21T17:35:24.408Z,54.60
2019-03-21T17:37:54.592Z,54.80
2019-03-21T17:40:24.760Z,54.70
2019-03-21T17:42:54.934Z,55.00
2019-03-21T17:45:25.160Z,54.90
2019-03-21T17:47:55.353Z,55.00
2019-03-21T17:50:25.509Z,55.10
2019-03-21T17:52:55.681Z,55.20
2019-03-21T17:55:25.850Z,55.30
2019-03-21T17:57:56.019Z,55.30
2019-03-21T18:00:27.386Z,55.40
2019-03-21T18:02:57.736Z,55.40
2019-03-21T18:05:27.901Z,55.60
2019-03-21T18:07:58.150Z,55.60
2019-03-21T18:10:32.306Z,55.70
2019-03-21T18:13:03.839Z,55.90
2019-03-21T18:15:34.077Z,55.90
2019-03-21T18:18:06.286Z,56.00
2019-03-21T18:20:36.449Z,56.00
2019-03-21T18:23:06.690Z,57.00
2019-03-21T18:25:36.864Z,56.80
2019-03-21T18:28:08.737Z,56.80
2019-03-21T18:30:50.424Z,56.80
2019-03-21T18:33:20.725Z,56.70
2019-03-21T18:35:51.000Z,56.90
2019-03-21T18:38:21.184Z,56.90
2019-03-21T18:40:51.383Z,57.10
2019-03-21T18:43:22.533Z,57.20
2019-03-21T18:45:52.816Z,57.30
2019-03-21T18:48:22.984Z,57.50
2019-03-21T18:50:53.168Z,57.60
2019-03-21T18:53:23.441Z,57.70
2019-03-21T18:55:53.630Z,57.80
2019-03-21T18:58:23.775Z,57.80
2019-03-21T19:00:53.948Z,57.90
2019-03-21T19:03:24.192Z,57.90
2019-03-21T19:05:54.364Z,58.00
2019-03-21T19:08:24.548Z,58.00
2019-03-21T19:10:54.752Z,58.20
2019-03-21T19:13:24.912Z,58.30
2019-03-21T19:15:55.107Z,58.40
2019-03-21T19:18:25.277Z,58.50
2019-03-21T19:20:56.235Z,58.60
2019-03-21T19:23:26.411Z,58.80
2019-03-21T19:25:57.246Z,59.50
2019-03-21T19:28:27.440Z,58.90
2019-03-21T19:30:58.025Z,59.00
2019-03-21T19:33:28.181Z,59.00
2019-03-21T19:35:58.371Z,59.00
2019-03-21T19:38:28.525Z,59.20
2019-03-21T19:40:58.953Z,59.30
2019-03-21T19:43:30.354Z,59.40
2019-03-21T19:46:00.505Z,59.20
2019-03-21T19:48:30.672Z,59.40
2019-03-21T19:51:00.998Z,59.40
2019-03-21T19:53:31.164Z,59.70
2019-03-21T19:56:08.528Z,59.70
2019-03-21T19:58:33.289Z,59.80
2019-03-21T20:01:03.497Z,59.90
2019-03-21T20:03:33.772Z,59.90
2019-03-21T20:06:04.161Z,60.00
2019-03-21T20:08:34.407Z,60.10
2019-03-21T20:11:04.597Z,60.20
2019-03-21T20:13:35.749Z,60.20
2019-03-21T20:16:06.059Z,60.30
2019-03-21T20:18:36.360Z,60.30
2019-03-21T20:21:06.561Z,60.40
2019-03-21T20:23:36.788Z,60.60
2019-03-21T20:26:07.068Z,60.50
2019-03-21T20:28:37.316Z,60.60
2019-03-21T20:31:07.574Z,60.80
2019-03-21T20:33:43.816Z,61.10
2019-03-21T20:36:15.037Z,61.10
2019-03-21T20:38:45.234Z,61.20
2019-03-21T20:41:15.528Z,61.50
2019-03-21T20:43:45.805Z,61.70
2019-03-21T20:46:15.988Z,61.90
2019-03-21T20:48:44.365Z,62.20
2019-03-21T20:51:14.543Z,62.40
2019-03-21T20:53:44.773Z,62.60
2019-03-21T20:56:14.944Z,63.60
2019-03-21T20:58:45.194Z,64.00
2019-03-21T21:01:15.461Z,63.30
2019-03-21T21:03:45.748Z,63.60
2019-03-21T21:06:15.900Z,63.70
2019-03-21T21:08:46.116Z,64.10
2019-03-21T21:11:16.308Z,64.00
2019-03-21T21:13:46.896Z,64.30
2019-03-21T21:16:18.256Z,64.60
2019-03-21T21:18:48.486Z,64.60
2019-03-21T21:21:18.660Z,64.80
2019-03-21T21:23:48.903Z,65.10
2019-03-21T21:26:19.189Z,65.10
2019-03-21T21:28:49.404Z,65.30
2019-03-21T21:31:19.584Z,65.50
2019-03-21T21:33:49.829Z,65.80
2019-03-21T21:36:22.158Z,65.90
2019-03-21T21:38:51.981Z,66.20
2019-03-21T21:41:22.312Z,66.40
2019-03-21T21:43:53.499Z,66.40
2019-03-21T21:46:23.915Z,65.80
2019-03-21T21:48:54.147Z,66.60
2019-03-21T21:51:24.344Z,66.90
2019-03-21T21:53:54.576Z,67.10
2019-03-21T21:56:24.759Z,67.60
2019-03-21T21:58:54.936Z,67.50
2019-03-21T22:01:25.448Z,67.70
2019-03-21T22:04:04.646Z,67.70
2019-03-21T22:06:27.561Z,67.80
2019-03-21T22:08:57.760Z,68.10
2019-03-21T22:11:27.948Z,68.10
2019-03-21T22:13:58.146Z,68.30
2019-03-21T22:16:28.337Z,68.40
2019-03-21T22:18:58.532Z,68.70
2019-03-21T22:21:28.731Z,68.60
2019-03-21T22:23:58.898Z,68.90
2019-03-21T22:26:29.988Z,68.90
2019-03-21T22:29:00.409Z,69.10
2019-03-21T22:31:30.624Z,69.20
2019-03-21T22:34:00.787Z,69.30
2019-03-21T22:36:31.033Z,69.40
2019-03-21T22:39:01.193Z,69.80
2019-03-21T22:41:33.020Z,69.90
2019-03-21T22:44:04.861Z,69.80
2019-03-21T22:46:35.045Z,70.00
2019-03-21T22:49:06.360Z,70.10
2019-03-21T22:51:36.544Z,70.00
2019-03-21T22:54:06.887Z,70.30
2019-03-21T22:56:41.475Z,70.40
2019-03-21T22:59:08.929Z,70.70
2019-03-21T23:01:39.254Z,70.70
2019-03-21T23:04:09.433Z,70.60
2019-03-21T23:06:39.641Z,70.80
2019-03-21T23:09:09.859Z,71.00
2019-03-21T23:11:40.048Z,70.90
2019-03-21T23:14:10.214Z,71.10
2019-03-21T23:16:40.477Z,71.20
2019-03-21T23:19:10.693Z,71.10
2019-03-21T23:21:40.983Z,71.50
2019-03-21T23:24:12.195Z,72.40
2019-03-21T23:26:52.493Z,72.30
2019-03-21T23:29:14.373Z,71.60
2019-03-21T23:31:44.561Z,71.90
2019-03-21T23:34:14.725Z,71.90
2019-03-21T23:36:44.915Z,72.80
2019-03-21T23:39:15.087Z,72.20
2019-03-21T23:41:45.285Z,72.50
2019-03-21T23:44:15.453Z,72.40
2019-03-21T23:46:45.658Z,72.50
2019-03-21T23:49:15.832Z,72.70
2019-03-21T23:51:46.025Z,72.40
2019-03-21T23:54:17.265Z,72.60
2019-03-21T23:56:47.465Z,72.50
2019-03-21T23:59:17.660Z,72.70
